Charleston, SC

12:25 PM EST on February 09, 2016 (GMT -0500)
Seaside Plantation | | Change Station
CLOSE
Current Station
Personal Weather Station
Location: James Island, SC
Elevation: 35 ft
Nearby Weather Stations
Active Advisory: Special Statement

Elev 35 ft 32.71 °N, 79.95 °W | Updated 42 seconds ago

Overcast
Overcast
46.2 °F
Feels Like 44 °F
N
4.7
Wind Variable Wind from SW

Today
High -- | Low -- °F
--% Chance of Precip.
Yesterday
High -- | Low -- °F
Precip. -- in
Pressure 29.81 in
Visibility 10.0 miles
Clouds Few 3800 ft
Mostly Cloudy 5000 ft
Overcast 5500 ft
Windchill 44 °F
Dew Point 28 °F
Humidity 49%
Rainfall 0.00 in
Snow Depth Not available.
7:08 AM 5:59 PM
New Moon, 2% visible
METAR KJZI 091715Z AUTO 25013G22KT 10SM FEW038 BKN050 OVC055 08/M03 A2981 RMK AO2
Pressure 29.81 in
Visibility 10.0 miles
Clouds Few 3800 ft
Mostly Cloudy 5000 ft
Overcast 5500 ft
Windchill 44 °F
Dew Point 28 °F
Humidity 49%
Rainfall 0.00 in
Snow Depth Not available.
7:08 AM 5:59 PM
New Moon, 2% visible
METAR KJZI 091715Z AUTO 25013G22KT 10SM FEW038 BKN050 OVC055 08/M03 A2981 RMK AO2

10-Day Weather Forecast

Almanac

Astronomy

Feb. 09, 2016 Rise Set
Actual Time
Civil Twilight
Nautical Twilight
Astronomical Twilight
Moon
Length of Visible Light
Length of Day
Tomorrow will be .
, % of the Moon is Illuminated

Today's Extremes

State Highs State Lows

Community

WunderPhotos

Upload Photos

1,891,637 photos uploaded!

WunderBlog® & News

Nearby

Air Quality

  Air Quality AQ Index Pollutant
Not available.

Snow Depth

Station Depth Elevation

Earthquake Activity

City Distance Mag. Time & Date
Minimum magnitude displayed is 2.5.

Coastal Water Temperatures

Place Temperature

Stations

Nearby Weather Stations

Station Location Temp. Windchill Dew Point Humidity Wind Precip. Elev Updated Type
                   

Watches & Warnings

Special Statement
Issued: 10:54 AM EST Feb. 9, 2016 – National Weather Service

... Breezy conditions through this afternoon...

West winds are expected to gust as high as around 35 mph through
this evening... with a few higher gusts possible... especially on
elevated roadways such as bridges and overpasses. This could lead
to the felling of some weaker trees due to very wet grounds.

Precautionary/preparedness actions...

Be careful when driving high profile vehicles across bridges and
overpasses. Be alert for the possibility that some weak trees
could fall.